createdAt,value
2018-11-27T00:01:41.130Z,2.50
2018-11-27T00:04:10.519Z,2.50
2018-11-27T00:06:39.792Z,2.50
2018-11-27T00:09:09.695Z,2.40
2018-11-27T00:11:38.869Z,2.40
2018-11-27T00:14:08.151Z,2.50
2018-11-27T00:16:37.359Z,2.40
2018-11-27T00:19:06.905Z,2.40
2018-11-27T00:21:36.104Z,2.40
2018-11-27T00:24:05.288Z,2.40
2018-11-27T00:26:34.490Z,2.30
2018-11-27T00:29:03.622Z,2.20
2018-11-27T00:31:33.194Z,2.20
2018-11-27T00:34:02.577Z,2.10
2018-11-27T00:36:33.094Z,2.10
2018-11-27T00:39:02.150Z,2.10
2018-11-27T00:41:31.589Z,2.10
2018-11-27T00:44:00.877Z,2.10
2018-11-27T00:46:30.153Z,2.20
2018-11-27T00:48:59.282Z,2.10
2018-11-27T00:51:28.537Z,2.10
2018-11-27T00:53:57.541Z,2.00
2018-11-27T00:56:26.570Z,1.90
2018-11-27T00:58:55.709Z,1.90
2018-11-27T01:01:24.895Z,1.80
2018-11-27T01:03:54.179Z,1.80
2018-11-27T01:06:23.350Z,1.80
2018-11-27T01:08:52.771Z,1.70
2018-11-27T01:11:21.999Z,1.70
2018-11-27T01:13:51.284Z,1.60
2018-11-27T01:16:20.900Z,1.60
2018-11-27T01:18:50.267Z,1.60
2018-11-27T01:21:19.349Z,1.50
2018-11-27T01:23:48.438Z,1.40
2018-11-27T01:26:17.723Z,1.40
2018-11-27T01:28:47.130Z,1.40
2018-11-27T01:31:16.324Z,1.40
2018-11-27T01:33:45.512Z,1.30
2018-11-27T01:36:14.575Z,1.30
2018-11-27T01:38:43.750Z,1.30
2018-11-27T01:41:12.906Z,1.30
2018-11-27T01:43:41.920Z,1.40
2018-11-27T01:46:11.006Z,1.40
2018-11-27T01:48:40.142Z,1.30
2018-11-27T01:51:09.274Z,1.30
2018-11-27T01:53:38.291Z,1.20
2018-11-27T01:56:07.380Z,1.20
2018-11-27T01:58:36.320Z,1.10
2018-11-27T02:01:05.851Z,1.10
2018-11-27T02:03:36.058Z,1.00
2018-11-27T02:06:05.582Z,1.00
2018-11-27T02:08:34.675Z,1.00
2018-11-27T02:11:04.147Z,1.00
2018-11-27T02:13:33.330Z,1.00
2018-11-27T02:16:02.300Z,1.00
2018-11-27T02:18:31.345Z,1.10
2018-11-27T02:21:00.482Z,1.10
2018-11-27T02:23:29.767Z,1.10
2018-11-27T02:25:58.948Z,1.10
2018-11-27T02:28:28.174Z,1.10
2018-11-27T02:30:57.118Z,1.20
2018-11-27T02:33:26.303Z,1.20
2018-11-27T02:35:55.602Z,1.20
2018-11-27T02:38:24.789Z,1.20
2018-11-27T02:40:53.781Z,1.20
2018-11-27T02:43:22.914Z,1.10
2018-11-27T02:45:51.838Z,1.00
2018-11-27T02:48:23.897Z,1.00
2018-11-27T02:50:53.156Z,1.00
2018-11-27T02:53:22.298Z,0.90
2018-11-27T02:55:51.534Z,0.90
2018-11-27T02:58:20.714Z,0.80
2018-11-27T03:00:49.803Z,0.80
2018-11-27T03:03:18.937Z,0.90
2018-11-27T03:05:48.055Z,0.90
2018-11-27T03:08:17.056Z,0.80
2018-11-27T03:10:46.043Z,0.80
2018-11-27T03:13:15.077Z,0.80
2018-11-27T03:15:44.308Z,0.80
2018-11-27T03:18:13.530Z,0.80
2018-11-27T03:20:42.686Z,0.80
2018-11-27T03:23:11.816Z,0.70
2018-11-27T03:25:40.903Z,0.60
2018-11-27T03:28:09.921Z,0.60
2018-11-27T03:30:38.888Z,0.60
2018-11-27T03:33:08.219Z,0.60
2018-11-27T03:35:37.208Z,0.50
2018-11-27T03:38:07.086Z,0.40
2018-11-27T03:40:36.404Z,0.40
2018-11-27T03:43:05.588Z,0.40
2018-11-27T03:45:34.755Z,0.50
2018-11-27T03:48:03.808Z,0.50
2018-11-27T03:50:33.686Z,0.60
2018-11-27T03:53:02.743Z,0.70
2018-11-27T03:55:32.282Z,0.70
2018-11-27T03:58:01.550Z,0.80
2018-11-27T04:00:31.578Z,0.80
2018-11-27T04:03:08.101Z,0.90
2018-11-27T04:05:37.382Z,0.90
2018-11-27T04:08:07.622Z,0.90
2018-11-27T04:10:36.783Z,0.90
2018-11-27T04:13:05.854Z,1.00
2018-11-27T04:15:35.023Z,0.90
2018-11-27T04:18:03.971Z,1.00
2018-11-27T04:20:32.899Z,1.00
2018-11-27T04:23:01.799Z,1.10
2018-11-27T04:25:30.711Z,1.10
2018-11-27T04:27:59.621Z,1.30
2018-11-27T04:30:28.710Z,1.50
2018-11-27T04:32:57.680Z,1.60
2018-11-27T04:35:26.991Z,1.60
2018-11-27T04:37:55.905Z,1.70
2018-11-27T04:40:24.814Z,1.70
2018-11-27T04:42:54.041Z,1.80
2018-11-27T04:45:24.466Z,1.80
2018-11-27T04:47:53.415Z,1.80
2018-11-27T04:50:22.608Z,1.80
2018-11-27T04:52:51.531Z,1.90
2018-11-27T04:55:21.194Z,1.90
2018-11-27T04:57:51.838Z,1.90
2018-11-27T05:00:24.502Z,2.00
2018-11-27T05:02:53.415Z,2.00
2018-11-27T05:05:23.515Z,1.90
2018-11-27T05:07:52.473Z,1.90
2018-11-27T05:10:22.491Z,2.00
2018-11-27T05:12:51.535Z,2.00
2018-11-27T05:15:23.572Z,2.00
2018-11-27T05:17:53.557Z,2.00
2018-11-27T05:20:22.523Z,2.20
2018-11-27T05:22:51.462Z,2.20
2018-11-27T05:25:20.872Z,2.30
2018-11-27T05:27:57.200Z,2.30
2018-11-27T05:30:28.456Z,2.30
2018-11-27T05:32:57.009Z,2.30
2018-11-27T05:35:28.773Z,2.40
2018-11-27T05:37:58.143Z,2.40
2018-11-27T05:40:27.143Z,2.40
2018-11-27T05:43:01.052Z,2.40
2018-11-27T05:45:30.019Z,2.40
2018-11-27T05:47:59.014Z,2.40
2018-11-27T05:50:27.934Z,2.50
2018-11-27T05:52:56.875Z,2.50
2018-11-27T05:55:25.872Z,2.50
2018-11-27T05:57:55.682Z,2.40
2018-11-27T06:00:26.699Z,2.40
2018-11-27T06:02:57.523Z,2.40
2018-11-27T06:05:25.886Z,2.40
2018-11-27T06:07:54.878Z,2.40
2018-11-27T06:10:24.183Z,2.40
2018-11-27T06:12:53.091Z,2.40
2018-11-27T06:15:23.038Z,2.40
2018-11-27T06:17:54.093Z,2.40
2018-11-27T06:20:23.414Z,2.50
2018-11-27T06:22:52.724Z,2.50
2018-11-27T06:25:23.146Z,2.50
2018-11-27T06:28:02.699Z,2.50
2018-11-27T06:30:32.693Z,2.50
2018-11-27T06:33:01.631Z,2.60
2018-11-27T06:35:31.982Z,2.60
2018-11-27T06:38:00.886Z,2.60
2018-11-27T06:40:30.912Z,2.60
2018-11-27T06:42:59.849Z,2.60
2018-11-27T06:45:28.843Z,2.60
2018-11-27T06:47:57.774Z,2.60
2018-11-27T06:50:26.786Z,2.60
2018-11-27T06:55:51.564Z,2.60
2018-11-27T06:58:20.563Z,2.70
2018-11-27T07:00:49.659Z,2.70
2018-11-27T07:03:18.653Z,2.60
2018-11-27T07:05:47.635Z,2.70
2018-11-27T07:08:17.035Z,2.70
2018-11-27T07:10:46.570Z,2.70
2018-11-27T07:13:23.026Z,2.70
2018-11-27T07:15:52.353Z,2.70
2018-11-27T07:18:21.348Z,2.60
2018-11-27T07:20:51.682Z,2.60
2018-11-27T07:23:20.639Z,2.50
2018-11-27T07:25:49.583Z,2.60
2018-11-27T07:28:18.545Z,2.60
2018-11-27T07:30:47.576Z,2.60
2018-11-27T07:33:16.581Z,2.60
2018-11-27T07:35:51.787Z,2.60
2018-11-27T07:38:21.119Z,2.60
2018-11-27T07:40:50.057Z,2.60
2018-11-27T07:43:18.940Z,2.60
2018-11-27T07:45:47.888Z,2.70
2018-11-27T07:48:16.841Z,2.70
2018-11-27T07:50:45.839Z,2.70
2018-11-27T07:53:21.234Z,2.70
2018-11-27T07:55:50.176Z,2.70
2018-11-27T07:58:19.182Z,2.60
2018-11-27T08:00:48.195Z,2.60
2018-11-27T08:03:17.189Z,2.60
2018-11-27T08:08:42.687Z,2.70
2018-11-27T08:11:11.670Z,2.70
2018-11-27T08:13:40.720Z,2.70
2018-11-27T08:16:09.710Z,2.80
2018-11-27T08:18:38.622Z,2.80
2018-11-27T08:21:07.626Z,2.90
2018-11-27T08:23:36.506Z,2.90
2018-11-27T08:26:05.766Z,3.00
2018-11-27T08:28:34.684Z,3.00
2018-11-27T08:31:03.677Z,3.00
2018-11-27T08:33:32.579Z,3.00
2018-11-27T08:36:01.476Z,3.00
2018-11-27T08:38:30.403Z,3.00
2018-11-27T08:40:59.312Z,3.10
2018-11-27T08:43:28.200Z,3.10
2018-11-27T08:45:57.070Z,3.30
2018-11-27T08:48:25.983Z,3.30
2018-11-27T08:50:54.930Z,3.30
2018-11-27T08:53:23.860Z,3.30
2018-11-27T08:55:52.750Z,3.40
2018-11-27T08:58:22.412Z,3.40
2018-11-27T09:00:51.391Z,3.40
2018-11-27T09:03:21.135Z,3.40
2018-11-27T09:05:50.045Z,3.40
2018-11-27T09:08:18.997Z,3.40
2018-11-27T09:10:48.209Z,3.40
2018-11-27T09:13:17.349Z,3.40
2018-11-27T09:15:46.170Z,3.40
2018-11-27T09:18:23.463Z,3.50
2018-11-27T09:20:52.372Z,3.50
2018-11-27T09:23:21.279Z,3.50
2018-11-27T09:25:50.239Z,3.60
2018-11-27T09:28:19.125Z,3.60
2018-11-27T09:30:48.029Z,3.70
2018-11-27T09:33:17.071Z,3.80
2018-11-27T09:35:46.112Z,3.80
2018-11-27T09:38:15.025Z,3.90
2018-11-27T09:40:44.218Z,3.90
2018-11-27T09:43:13.214Z,4.00
2018-11-27T09:45:43.202Z,4.10
2018-11-27T09:48:12.161Z,4.10
2018-11-27T09:50:41.082Z,4.20
2018-11-27T09:53:12.506Z,4.20
2018-11-27T09:55:41.434Z,4.20
2018-11-27T09:58:10.357Z,4.30
2018-11-27T10:00:39.360Z,4.30
2018-11-27T10:03:14.554Z,4.30
2018-11-27T10:05:43.513Z,4.30
2018-11-27T10:08:12.466Z,4.30
2018-11-27T10:10:41.378Z,4.50
2018-11-27T10:13:10.314Z,4.40
2018-11-27T10:15:39.218Z,4.50
2018-11-27T10:18:08.150Z,4.50
2018-11-27T10:20:41.978Z,4.50
2018-11-27T10:23:13.032Z,4.50
2018-11-27T10:25:42.003Z,4.60
2018-11-27T10:28:10.944Z,4.60
2018-11-27T10:30:39.997Z,4.60
2018-11-27T10:33:10.054Z,4.70
2018-11-27T10:35:56.196Z,4.80
2018-11-27T10:38:26.384Z,4.90
2018-11-27T10:40:54.279Z,5.00
2018-11-27T10:43:23.191Z,5.10
2018-11-27T10:45:52.131Z,5.20
2018-11-27T10:48:21.090Z,5.20
2018-11-27T10:50:50.028Z,5.30
2018-11-27T10:53:18.960Z,5.40
2018-11-27T10:55:47.866Z,5.40
2018-11-27T10:58:16.785Z,5.40
2018-11-27T11:00:50.846Z,5.50
2018-11-27T11:03:49.919Z,5.50
2018-11-27T11:06:19.215Z,5.70
2018-11-27T11:08:48.127Z,5.70
2018-11-27T11:11:17.096Z,5.70
2018-11-27T11:13:46.027Z,5.80
2018-11-27T11:16:14.957Z,5.90
2018-11-27T11:18:43.919Z,5.90
2018-11-27T11:21:12.907Z,5.90
2018-11-27T11:23:41.889Z,6.00
2018-11-27T11:26:10.825Z,6.10
2018-11-27T11:28:39.751Z,6.20
2018-11-27T11:31:09.574Z,6.20
2018-11-27T11:33:38.491Z,6.30
2018-11-27T11:36:07.848Z,6.30
2018-11-27T11:38:36.794Z,6.40
2018-11-27T11:41:06.286Z,6.40
2018-11-27T11:43:35.564Z,6.50
2018-11-27T11:46:04.608Z,6.60
2018-11-27T11:48:33.566Z,6.70
2018-11-27T11:51:02.531Z,6.80
2018-11-27T11:53:31.527Z,6.90
2018-11-27T11:56:00.469Z,6.90
2018-11-27T11:58:29.497Z,7.00
2018-11-27T12:00:58.475Z,7.10
2018-11-27T12:03:27.432Z,7.20
2018-11-27T12:05:56.392Z,7.40
2018-11-27T12:08:25.342Z,7.50
2018-11-27T12:10:54.677Z,7.60
2018-11-27T12:13:23.569Z,7.70
2018-11-27T12:15:52.503Z,7.80
2018-11-27T12:18:21.430Z,7.90
2018-11-27T12:20:56.683Z,7.90
2018-11-27T12:23:25.605Z,8.00
2018-11-27T12:25:54.562Z,8.10
2018-11-27T12:28:23.485Z,8.20
2018-11-27T12:30:52.407Z,8.30
2018-11-27T12:33:21.290Z,8.40
2018-11-27T12:35:50.220Z,8.40
2018-11-27T12:38:19.854Z,8.40
2018-11-27T12:40:48.760Z,8.40
2018-11-27T12:46:13.640Z,8.50
2018-11-27T12:48:42.640Z,8.60
2018-11-27T12:51:12.168Z,8.60
2018-11-27T12:53:40.556Z,8.60
2018-11-27T12:56:09.522Z,8.70
2018-11-27T12:58:38.468Z,8.80
2018-11-27T13:01:09.616Z,8.70
2018-11-27T13:03:36.599Z,8.70
2018-11-27T13:06:05.574Z,8.70
2018-11-27T13:08:34.533Z,8.90
2018-11-27T13:11:03.451Z,9.00
2018-11-27T13:13:32.406Z,9.00
2018-11-27T13:16:01.340Z,8.90
2018-11-27T13:18:30.214Z,8.90
2018-11-27T13:20:59.139Z,8.90
2018-11-27T13:23:28.138Z,8.90
2018-11-27T13:25:57.138Z,8.90
2018-11-27T13:28:26.024Z,8.90
2018-11-27T13:30:59.738Z,8.90
2018-11-27T13:33:34.311Z,9.00
2018-11-27T13:36:03.620Z,9.00
2018-11-27T13:38:32.626Z,9.00
2018-11-27T13:41:01.610Z,9.00
2018-11-27T13:43:30.875Z,9.10
2018-11-27T13:46:00.770Z,9.00
2018-11-27T13:48:29.699Z,9.00
2018-11-27T13:50:58.678Z,9.10
2018-11-27T13:53:27.588Z,9.20
2018-11-27T13:55:56.766Z,9.10
2018-11-27T13:58:25.751Z,9.10
2018-11-27T14:00:55.153Z,9.10
2018-11-27T14:03:24.144Z,9.20
2018-11-27T14:05:53.039Z,9.20
2018-11-27T14:08:22.089Z,9.20
2018-11-27T14:10:51.022Z,9.30
2018-11-27T14:13:19.938Z,9.40
2018-11-27T14:15:48.921Z,9.40
2018-11-27T14:18:17.821Z,9.40
2018-11-27T14:20:46.810Z,9.40
2018-11-27T14:23:15.935Z,9.40
2018-11-27T14:25:44.826Z,9.40
2018-11-27T14:28:13.730Z,9.40
2018-11-27T14:30:42.688Z,9.50
2018-11-27T14:33:11.697Z,9.50
2018-11-27T14:35:41.006Z,9.40
2018-11-27T14:38:09.895Z,9.40
2018-11-27T14:40:45.287Z,9.50
2018-11-27T14:43:14.205Z,9.60
2018-11-27T14:45:43.182Z,9.10
2018-11-27T14:48:12.174Z,8.80
2018-11-27T14:50:41.092Z,8.60
2018-11-27T14:53:10.038Z,8.50
2018-11-27T14:55:38.971Z,8.50
2018-11-27T14:58:07.964Z,8.40
2018-11-27T15:00:36.988Z,8.40
2018-11-27T15:03:06.404Z,8.40
2018-11-27T15:05:38.038Z,8.40
2018-11-27T15:08:11.183Z,8.40
2018-11-27T15:10:40.125Z,8.40
2018-11-27T15:13:09.739Z,8.40
2018-11-27T15:15:38.692Z,8.40
2018-11-27T15:18:08.007Z,8.40
2018-11-27T15:20:37.802Z,8.50
2018-11-27T15:23:06.759Z,8.60
2018-11-27T15:25:35.720Z,8.70
2018-11-27T15:28:05.369Z,8.70
2018-11-27T15:30:36.726Z,8.70
2018-11-27T15:33:05.997Z,8.70
2018-11-27T15:35:35.152Z,8.70
2018-11-27T15:38:04.116Z,8.70
2018-11-27T15:40:33.025Z,8.70
2018-11-27T15:43:01.959Z,8.70
2018-11-27T15:45:32.257Z,8.70
2018-11-27T15:48:01.298Z,8.80
2018-11-27T15:50:30.252Z,8.80
2018-11-27T15:52:59.255Z,8.80
2018-11-27T15:55:30.406Z,8.70
2018-11-27T15:58:08.253Z,8.80
2018-11-27T16:00:37.462Z,8.80
2018-11-27T16:03:07.207Z,8.70
2018-11-27T16:05:37.048Z,8.60
2018-11-27T16:08:06.511Z,8.60
2018-11-27T16:10:35.411Z,8.60
2018-11-27T16:13:04.475Z,8.60
2018-11-27T16:15:33.392Z,8.60
2018-11-27T16:18:02.411Z,8.70
2018-11-27T16:20:31.312Z,8.70
2018-11-27T16:23:00.296Z,8.70
2018-11-27T16:25:29.803Z,8.70
2018-11-27T16:27:58.747Z,8.70
2018-11-27T16:33:24.013Z,8.70
2018-11-27T16:35:53.149Z,8.80
2018-11-27T16:38:22.581Z,8.70
2018-11-27T16:40:51.468Z,8.70
2018-11-27T16:46:17.470Z,8.70
2018-11-27T16:48:46.404Z,8.70
2018-11-27T16:51:15.444Z,8.60
2018-11-27T16:53:44.722Z,8.60
2018-11-27T16:56:13.765Z,8.50
2018-11-27T16:58:43.094Z,8.60
2018-11-27T17:01:12.189Z,8.60
2018-11-27T17:03:41.434Z,8.70
2018-11-27T17:06:10.391Z,8.80
2018-11-27T17:08:39.423Z,8.80
2018-11-27T17:11:09.476Z,8.70
2018-11-27T17:13:38.473Z,8.60
2018-11-27T17:16:07.893Z,8.60
2018-11-27T17:18:37.629Z,8.60
2018-11-27T17:21:06.882Z,8.70
2018-11-27T17:23:36.210Z,8.70
2018-11-27T17:26:06.787Z,8.70
2018-11-27T17:28:36.662Z,8.80
2018-11-27T17:31:10.924Z,8.70
2018-11-27T17:36:30.438Z,8.70
2018-11-27T17:39:00.060Z,8.90
2018-11-27T17:41:29.388Z,8.90
2018-11-27T17:43:59.591Z,8.90
2018-11-27T17:46:29.158Z,8.90
2018-11-27T17:48:58.272Z,8.90
2018-11-27T17:51:27.242Z,8.80
2018-11-27T17:53:56.161Z,8.80
2018-11-27T17:56:25.258Z,8.70
2018-11-27T17:58:54.202Z,8.70
2018-11-27T18:01:23.237Z,9.00
2018-11-27T18:03:53.384Z,9.00
2018-11-27T18:09:19.350Z,8.90
2018-11-27T18:11:48.569Z,8.70
2018-11-27T18:14:21.385Z,8.40
2018-11-27T18:20:11.374Z,8.20
2018-11-27T18:22:40.975Z,8.20
2018-11-27T18:25:14.762Z,8.30
2018-11-27T18:27:45.579Z,8.40
2018-11-27T18:30:20.705Z,8.40
2018-11-27T18:32:50.071Z,8.40
2018-11-27T18:35:22.362Z,8.40
2018-11-27T18:37:51.863Z,8.40
2018-11-27T18:40:21.186Z,8.40
2018-11-27T18:42:50.285Z,8.40
2018-11-27T18:45:22.019Z,8.70
2018-11-27T18:47:50.926Z,8.60
2018-11-27T18:50:20.239Z,8.50
2018-11-27T18:52:49.188Z,8.50
2018-11-27T18:55:18.309Z,8.50
2018-11-27T18:57:47.998Z,8.40
2018-11-27T19:00:21.010Z,8.40
2018-11-27T19:02:49.944Z,8.50
2018-11-27T19:05:18.990Z,8.50
2018-11-27T19:07:48.000Z,8.50
2018-11-27T19:10:20.818Z,8.40
2018-11-27T19:12:50.230Z,8.40
2018-11-27T19:15:37.451Z,8.50
2018-11-27T19:18:14.637Z,8.50
2018-11-27T19:20:43.589Z,8.40
2018-11-27T19:23:12.624Z,8.50
2018-11-27T19:25:41.651Z,8.50
2018-11-27T19:28:10.762Z,8.30
2018-11-27T19:30:39.841Z,8.10
2018-11-27T19:33:09.318Z,8.20
2018-11-27T19:35:38.582Z,8.20
2018-11-27T19:38:12.263Z,8.20
2018-11-27T19:40:42.150Z,8.20
2018-11-27T19:43:11.263Z,8.20
2018-11-27T19:45:40.218Z,8.20
2018-11-27T19:48:10.213Z,8.20
2018-11-27T19:50:39.228Z,8.30
2018-11-27T19:53:12.385Z,8.30
2018-11-27T19:55:40.900Z,8.30
2018-11-27T19:58:10.869Z,8.30
2018-11-27T20:00:39.762Z,8.40
2018-11-27T20:03:10.499Z,8.70
2018-11-27T20:05:39.523Z,8.50
2018-11-27T20:08:13.258Z,8.60
2018-11-27T20:10:42.234Z,8.60
2018-11-27T20:13:11.480Z,8.60
2018-11-27T20:15:40.600Z,8.90
2018-11-27T20:18:09.849Z,8.70
2018-11-27T20:20:39.076Z,8.60
2018-11-27T20:23:08.189Z,8.50
2018-11-27T20:25:37.163Z,8.40
2018-11-27T20:28:07.358Z,8.30
2018-11-27T20:30:36.884Z,8.20
2018-11-27T20:33:06.474Z,8.20
2018-11-27T20:35:35.518Z,8.10
2018-11-27T20:38:06.571Z,8.10
2018-11-27T20:40:35.632Z,8.00
2018-11-27T20:43:04.645Z,8.00
2018-11-27T20:45:33.705Z,8.00
2018-11-27T20:48:13.948Z,7.90
2018-11-27T20:50:43.107Z,7.90
2018-11-27T20:53:12.294Z,7.90
2018-11-27T20:55:41.465Z,7.90
2018-11-27T20:58:10.637Z,7.90
2018-11-27T21:00:41.836Z,7.90
2018-11-27T21:03:11.546Z,7.90
2018-11-27T21:05:40.625Z,7.80
2018-11-27T21:08:09.788Z,7.80
2018-11-27T21:10:39.352Z,7.70
2018-11-27T21:13:09.766Z,7.70
2018-11-27T21:15:40.176Z,7.70
2018-11-27T21:18:10.580Z,7.70
2018-11-27T21:20:40.635Z,7.80
2018-11-27T21:23:09.637Z,7.90
2018-11-27T21:25:38.639Z,8.00
2018-11-27T21:28:14.853Z,7.90
2018-11-27T21:30:44.872Z,7.90
2018-11-27T21:33:14.570Z,8.00
2018-11-27T21:35:43.829Z,8.10
2018-11-27T21:38:13.316Z,8.10
2018-11-27T21:40:42.588Z,8.10
2018-11-27T21:43:11.585Z,8.10
2018-11-27T21:45:40.613Z,8.10
2018-11-27T21:48:11.329Z,8.10
2018-11-27T21:50:44.141Z,8.20
2018-11-27T21:53:13.175Z,8.20
2018-11-27T21:55:42.911Z,8.20
2018-11-27T21:58:12.323Z,8.20
2018-11-27T22:00:42.527Z,8.20
2018-11-27T22:03:13.405Z,8.20
2018-11-27T22:05:42.554Z,8.10
2018-11-27T22:08:11.731Z,8.10
2018-11-27T22:10:41.235Z,8.00
2018-11-27T22:13:14.805Z,7.90
2018-11-27T22:15:44.888Z,7.80
2018-11-27T22:18:14.882Z,7.70
2018-11-27T22:20:44.015Z,7.70
2018-11-27T22:23:14.248Z,7.70
2018-11-27T22:25:43.294Z,7.60
2018-11-27T22:28:12.716Z,7.70
2018-11-27T22:30:41.642Z,7.70
2018-11-27T22:33:10.755Z,7.70
2018-11-27T22:35:39.701Z,7.70
2018-11-27T22:38:09.615Z,7.80
2018-11-27T22:40:38.625Z,7.80
2018-11-27T22:43:08.494Z,7.80
2018-11-27T22:45:39.882Z,7.90
2018-11-27T22:48:10.645Z,7.80
2018-11-27T22:50:39.998Z,7.80
2018-11-27T22:53:09.838Z,7.70
2018-11-27T22:55:39.196Z,7.70
2018-11-27T22:58:09.058Z,7.70
2018-11-27T23:00:43.392Z,7.70
2018-11-27T23:03:12.708Z,7.70
2018-11-27T23:05:41.726Z,7.70
2018-11-27T23:08:10.733Z,7.70
2018-11-27T23:10:41.237Z,7.70
2018-11-27T23:13:10.390Z,7.70
2018-11-27T23:15:39.467Z,7.70
2018-11-27T23:18:08.896Z,7.80
2018-11-27T23:20:38.166Z,7.80
2018-11-27T23:23:07.209Z,7.80
2018-11-27T23:25:36.221Z,7.90
2018-11-27T23:28:05.251Z,7.90
2018-11-27T23:30:34.622Z,7.90
2018-11-27T23:33:03.543Z,7.90
2018-11-27T23:35:32.788Z,7.90
2018-11-27T23:38:01.951Z,7.90
2018-11-27T23:40:31.702Z,7.80
2018-11-27T23:43:01.442Z,7.80
2018-11-27T23:45:30.515Z,7.80
2018-11-27T23:47:59.673Z,7.80
2018-11-27T23:50:28.922Z,7.80
2018-11-27T23:52:58.055Z,7.80
2018-11-27T23:55:27.147Z,7.80
2018-11-27T23:57:57.053Z,7.90
